createdAt,value
2022-08-22T00:01:29.629Z,76.70
2022-08-22T00:02:57.073Z,68.80
2022-08-22T00:03:07.041Z,77.10
2022-08-22T00:04:22.222Z,76.60
2022-08-22T00:07:19.313Z,76.80
2022-08-22T00:10:25.133Z,76.90
2022-08-22T00:13:13.740Z,76.90
2022-08-22T00:16:14.409Z,76.90
2022-08-22T00:18:57.863Z,76.90
2022-08-22T00:21:36.726Z,77.00
2022-08-22T00:24:07.889Z,77.20
2022-08-22T00:26:44.744Z,77.10
2022-08-22T00:29:43.554Z,77.40
2022-08-22T00:32:18.832Z,77.70
2022-08-22T00:35:06.138Z,77.60
2022-08-22T00:37:39.675Z,77.90
2022-08-22T00:40:21.922Z,77.90
2022-08-22T00:43:26.540Z,77.60
2022-08-22T00:46:06.620Z,77.70
2022-08-22T00:48:33.528Z,77.60
2022-08-22T00:51:18.658Z,77.60
2022-08-22T00:54:18.108Z,77.80
2022-08-22T00:57:13.963Z,78.20
2022-08-22T00:59:59.543Z,78.20
2022-08-22T01:02:32.042Z,78.40
2022-08-22T01:05:22.398Z,78.20
2022-08-22T01:08:02.905Z,78.50
2022-08-22T01:10:54.913Z,78.30
2022-08-22T01:13:31.837Z,78.40
2022-08-22T01:16:14.629Z,78.40
2022-08-22T01:19:29.493Z,78.60
2022-08-22T01:22:34.124Z,78.70
2022-08-22T01:25:22.630Z,78.70
2022-08-22T01:27:57.640Z,78.60
2022-08-22T01:30:29.337Z,78.60
2022-08-22T01:33:23.109Z,78.80
2022-08-22T01:36:11.512Z,79.10
2022-08-22T01:39:03.681Z,78.80
2022-08-22T01:41:55.117Z,79.10
2022-08-22T01:44:43.734Z,79.00
2022-08-22T01:47:26.641Z,79.20
2022-08-22T01:49:56.753Z,79.20
2022-08-22T01:52:33.115Z,79.10
2022-08-22T01:55:07.593Z,79.40
2022-08-22T01:57:57.703Z,79.30
2022-08-22T02:00:35.112Z,79.40
2022-08-22T02:03:29.281Z,79.10
2022-08-22T02:05:59.826Z,79.00
2022-08-22T02:08:38.355Z,78.90
2022-08-22T02:11:13.883Z,79.10
2022-08-22T02:13:46.466Z,79.30
2022-08-22T02:16:18.492Z,79.30
2022-08-22T02:19:04.572Z,79.60
2022-08-22T02:21:53.535Z,79.90
2022-08-22T02:24:33.503Z,80.00
2022-08-22T02:27:31.562Z,80.00
2022-08-22T02:30:08.751Z,80.00
2022-08-22T02:32:41.350Z,80.00
2022-08-22T02:35:33.431Z,79.90
2022-08-22T02:38:09.564Z,80.20
2022-08-22T02:40:41.089Z,80.10
2022-08-22T02:43:26.128Z,80.20
2022-08-22T02:46:00.472Z,80.30
2022-08-22T02:48:38.858Z,80.30
2022-08-22T02:51:26.427Z,80.50
2022-08-22T02:53:58.035Z,80.60
2022-08-22T02:56:35.712Z,80.70
2022-08-22T02:59:30.728Z,80.90
2022-08-22T03:01:58.450Z,81.20
2022-08-22T03:04:31.159Z,80.90
2022-08-22T03:07:03.855Z,81.00
2022-08-22T03:09:40.167Z,81.20
2022-08-22T03:12:16.514Z,81.20
2022-08-22T03:14:54.728Z,81.10
2022-08-22T03:17:26.808Z,81.20
2022-08-22T03:20:08.028Z,81.30
2022-08-22T03:22:48.765Z,81.40
2022-08-22T03:25:34.079Z,81.50
2022-08-22T03:28:02.601Z,81.50
2022-08-22T03:30:43.345Z,81.50
2022-08-22T03:33:16.879Z,81.70
2022-08-22T03:35:46.903Z,81.60
2022-08-22T03:38:19.410Z,81.50
2022-08-22T03:41:24.159Z,81.40
2022-08-22T03:44:15.307Z,81.60
2022-08-22T03:47:01.191Z,81.60
2022-08-22T03:50:06.860Z,81.70
2022-08-22T03:53:20.010Z,81.80
2022-08-22T03:56:05.596Z,81.80
2022-08-22T03:58:47.632Z,81.60
2022-08-22T04:01:42.509Z,81.90
2022-08-22T04:04:54.235Z,82.00
2022-08-22T04:07:41.007Z,82.10
2022-08-22T04:10:47.491Z,81.90
2022-08-22T04:13:29.230Z,82.20
2022-08-22T04:16:20.777Z,82.10
2022-08-22T04:18:59.836Z,82.50
2022-08-22T04:21:38.868Z,82.50
2022-08-22T04:24:05.761Z,82.50
2022-08-22T04:26:55.958Z,82.60
2022-08-22T04:29:31.751Z,82.80
2022-08-22T04:32:25.283Z,82.90
2022-08-22T04:34:54.654Z,83.20
2022-08-22T04:37:26.365Z,82.90
2022-08-22T04:40:21.931Z,83.10
2022-08-22T04:42:59.320Z,83.30
2022-08-22T04:45:29.833Z,83.30
2022-08-22T04:48:06.211Z,83.20
2022-08-22T04:50:41.195Z,83.40
2022-08-22T04:53:21.401Z,83.50
2022-08-22T04:55:51.684Z,83.60
2022-08-22T04:58:32.420Z,83.60
2022-08-22T05:01:20.467Z,83.90
2022-08-22T05:03:58.925Z,83.80
2022-08-22T05:06:30.252Z,83.70
2022-08-22T05:09:00.804Z,83.70
2022-08-22T05:11:27.751Z,83.80
2022-08-22T05:13:56.976Z,83.80
2022-08-22T05:16:27.870Z,83.90
2022-08-22T05:19:02.927Z,83.90
2022-08-22T05:21:32.807Z,84.00
2022-08-22T05:24:28.028Z,84.00
2022-08-22T05:26:55.989Z,84.20
2022-08-22T05:29:26.759Z,84.00
2022-08-22T05:32:02.157Z,84.10
2022-08-22T05:34:31.824Z,84.20
2022-08-22T05:37:04.951Z,84.10
2022-08-22T05:39:38.030Z,84.20
2022-08-22T05:42:05.340Z,84.10
2022-08-22T05:44:34.458Z,84.10
2022-08-22T05:47:02.067Z,84.20
2022-08-22T05:49:40.727Z,84.20
2022-08-22T05:52:28.611Z,84.40
2022-08-22T05:55:13.072Z,84.40
2022-08-22T05:57:41.981Z,84.40
2022-08-22T06:00:11.868Z,84.20
2022-08-22T06:02:53.638Z,84.20
2022-08-22T06:05:26.226Z,84.30
2022-08-22T06:08:03.776Z,84.20
2022-08-22T06:10:48.249Z,84.30
2022-08-22T06:13:32.581Z,84.50
2022-08-22T06:16:10.272Z,84.40
2022-08-22T06:18:38.750Z,84.50
2022-08-22T06:21:09.842Z,84.40
2022-08-22T06:23:48.277Z,84.50
2022-08-22T06:26:20.901Z,84.60
2022-08-22T06:28:55.413Z,84.50
2022-08-22T06:31:30.172Z,84.50
2022-08-22T06:34:24.802Z,84.60
2022-08-22T06:36:51.851Z,84.80
2022-08-22T06:39:30.137Z,84.50
2022-08-22T06:42:11.161Z,84.60
2022-08-22T06:44:59.878Z,84.60
2022-08-22T06:47:31.170Z,84.70
2022-08-22T06:50:01.981Z,84.40
2022-08-22T06:52:29.732Z,84.40
2022-08-22T06:55:02.722Z,84.20
2022-08-22T06:57:35.926Z,84.20
2022-08-22T07:00:06.980Z,84.00
2022-08-22T07:02:35.637Z,84.00
2022-08-22T07:05:02.618Z,83.90
2022-08-22T07:07:29.586Z,83.90
2022-08-22T07:09:57.458Z,83.90
2022-08-22T07:12:31.570Z,83.90
2022-08-22T07:15:10.779Z,83.90
2022-08-22T07:17:40.586Z,84.20
2022-08-22T07:20:24.200Z,83.40
2022-08-22T07:23:04.684Z,83.40
2022-08-22T07:25:31.859Z,83.00
2022-08-22T07:28:07.500Z,82.60
2022-08-22T07:30:46.882Z,82.30
2022-08-22T07:33:27.303Z,81.90
2022-08-22T07:36:01.576Z,81.60
2022-08-22T07:38:42.892Z,81.20
2022-08-22T07:41:21.561Z,80.80
2022-08-22T07:44:07.099Z,80.30
2022-08-22T07:47:26.579Z,79.70
2022-08-22T07:49:59.324Z,79.10
2022-08-22T07:52:26.252Z,78.70
2022-08-22T07:55:17.674Z,78.20
2022-08-22T07:57:47.454Z,77.70
2022-08-22T08:00:18.354Z,77.10
2022-08-22T08:02:47.799Z,76.60
2022-08-22T08:05:15.058Z,76.30
2022-08-22T08:07:44.050Z,76.00
2022-08-22T08:10:19.959Z,75.70
2022-08-22T08:13:01.989Z,75.40
2022-08-22T08:15:31.044Z,75.10
2022-08-22T08:18:00.529Z,74.80
2022-08-22T08:20:27.728Z,74.60
2022-08-22T08:22:55.931Z,74.20
2022-08-22T08:25:26.646Z,73.90
2022-08-22T08:28:11.875Z,73.70
2022-08-22T08:30:46.646Z,74.00
2022-08-22T08:33:25.547Z,73.20
2022-08-22T08:36:05.387Z,72.90
2022-08-22T08:38:45.430Z,72.50
2022-08-22T08:41:30.423Z,72.20
2022-08-22T08:44:15.945Z,71.90
2022-08-22T08:47:01.635Z,71.80
2022-08-22T08:49:42.915Z,71.70
2022-08-22T08:52:28.075Z,71.60
2022-08-22T08:55:21.751Z,71.50
2022-08-22T08:58:29.003Z,71.20
2022-08-22T09:01:20.526Z,71.00
2022-08-22T09:04:28.196Z,70.80
2022-08-22T09:07:20.075Z,70.50
2022-08-22T09:10:08.977Z,70.00
2022-08-22T09:13:12.344Z,69.50
2022-08-22T09:16:11.827Z,68.90
2022-08-22T09:19:05.029Z,68.90
2022-08-22T09:25:06.301Z,68.90
2022-08-22T09:27:37.635Z,69.10
2022-08-22T09:30:17.191Z,68.90
2022-08-22T09:32:54.559Z,68.80
2022-08-22T09:35:49.205Z,68.20
2022-08-22T09:38:25.680Z,67.80
2022-08-22T09:41:00.195Z,67.10
2022-08-22T09:43:34.692Z,66.70
2022-08-22T09:46:15.721Z,66.00
2022-08-22T09:49:00.802Z,65.20
2022-08-22T09:51:48.215Z,64.50
2022-08-22T09:54:41.525Z,63.30
2022-08-22T09:57:16.367Z,62.60
2022-08-22T10:00:02.103Z,62.10
2022-08-22T10:02:50.558Z,62.00
2022-08-22T10:05:40.636Z,62.20
2022-08-22T10:08:14.207Z,62.30
2022-08-22T10:11:06.528Z,62.50
2022-08-22T10:13:56.588Z,62.50
2022-08-22T10:17:02.350Z,62.80
2022-08-22T10:19:47.840Z,63.10
2022-08-22T10:22:18.845Z,63.10
2022-08-22T10:25:09.508Z,63.10
2022-08-22T10:27:40.259Z,63.30
2022-08-22T10:30:10.274Z,63.40
2022-08-22T10:32:43.699Z,63.00
2022-08-22T10:35:34.341Z,62.60
2022-08-22T10:38:10.936Z,62.10
2022-08-22T10:40:53.511Z,61.90
2022-08-22T10:43:43.149Z,62.10
2022-08-22T10:46:15.684Z,62.00
2022-08-22T10:48:53.383Z,62.00
2022-08-22T10:51:31.417Z,62.30
2022-08-22T10:54:04.496Z,62.50
2022-08-22T10:56:46.392Z,63.00
2022-08-22T10:59:25.655Z,63.80
2022-08-22T11:02:31.749Z,63.10
2022-08-22T11:05:04.873Z,62.80
2022-08-22T11:07:31.825Z,62.40
2022-08-22T11:10:05.122Z,62.10
2022-08-22T11:12:47.218Z,61.80
2022-08-22T11:15:28.472Z,61.40
2022-08-22T11:18:04.628Z,61.20
2022-08-22T11:20:59.333Z,61.40
2022-08-22T11:23:48.306Z,61.40
2022-08-22T11:26:47.377Z,61.70
2022-08-22T11:29:59.051Z,61.90
2022-08-22T11:32:34.572Z,61.40
2022-08-22T11:35:19.859Z,61.10
2022-08-22T11:37:57.309Z,61.10
2022-08-22T11:40:54.146Z,61.20
2022-08-22T11:43:49.312Z,61.50
2022-08-22T11:46:24.179Z,62.10
2022-08-22T11:49:20.838Z,62.60
2022-08-22T11:52:19.708Z,63.10
2022-08-22T11:54:58.825Z,63.70
2022-08-22T11:57:49.802Z,63.80
2022-08-22T12:00:44.107Z,64.00
2022-08-22T12:03:23.606Z,63.70
2022-08-22T12:06:22.123Z,64.10
2022-08-22T12:08:51.762Z,63.70
2022-08-22T12:11:25.953Z,63.60
2022-08-22T12:14:06.405Z,63.50
2022-08-22T12:17:11.422Z,63.60
2022-08-22T12:20:16.785Z,63.60
2022-08-22T12:23:37.994Z,63.80
2022-08-22T12:26:28.394Z,63.90
2022-08-22T12:29:15.623Z,64.20
2022-08-22T12:32:27.639Z,64.30
2022-08-22T12:35:13.831Z,64.40
2022-08-22T12:37:54.632Z,64.60
2022-08-22T12:40:34.703Z,64.70
2022-08-22T12:43:39.943Z,64.70
2022-08-22T12:46:13.566Z,64.60
2022-08-22T12:48:43.623Z,63.90
2022-08-22T12:52:04.307Z,62.90
2022-08-22T12:54:53.752Z,61.90
2022-08-22T12:57:32.364Z,61.10
2022-08-22T13:00:22.933Z,59.90
2022-08-22T13:02:52.968Z,57.80
2022-08-22T13:05:24.917Z,56.30
2022-08-22T13:08:04.644Z,55.70
2022-08-22T13:10:48.336Z,56.20
2022-08-22T13:13:38.824Z,56.30
2022-08-22T13:16:15.549Z,56.80
2022-08-22T13:18:55.680Z,57.20
2022-08-22T13:21:26.693Z,58.10
2022-08-22T13:24:03.527Z,59.30
2022-08-22T13:26:35.314Z,60.10
2022-08-22T13:29:25.648Z,60.90
2022-08-22T13:32:01.980Z,61.50
2022-08-22T13:34:46.996Z,62.10
2022-08-22T13:37:16.935Z,62.50
2022-08-22T13:39:45.989Z,62.90
2022-08-22T13:42:30.044Z,63.20
2022-08-22T13:44:59.797Z,63.40
2022-08-22T13:47:31.542Z,63.50
2022-08-22T13:50:13.994Z,63.70
2022-08-22T13:53:07.209Z,63.80
2022-08-22T13:55:38.992Z,63.80
2022-08-22T13:58:31.966Z,63.70
2022-08-22T14:01:25.258Z,63.90
2022-08-22T14:04:28.361Z,64.00
2022-08-22T14:07:03.780Z,64.20
2022-08-22T14:09:40.302Z,64.60
2022-08-22T14:12:08.263Z,64.80
2022-08-22T14:14:49.134Z,64.60
2022-08-22T14:17:21.068Z,64.60
2022-08-22T14:19:59.318Z,64.30
2022-08-22T14:22:35.338Z,64.20
2022-08-22T14:25:08.773Z,63.90
2022-08-22T14:27:39.748Z,63.90
2022-08-22T14:30:21.296Z,64.20
2022-08-22T14:33:27.575Z,64.50
2022-08-22T14:36:02.053Z,64.70
2022-08-22T14:38:30.493Z,64.90
2022-08-22T14:41:21.219Z,65.00
2022-08-22T14:44:00.818Z,64.90
2022-08-22T14:46:53.362Z,64.40
2022-08-22T14:49:28.668Z,63.60
2022-08-22T14:52:06.178Z,62.80
2022-08-22T14:54:33.743Z,60.80
2022-08-22T14:57:01.869Z,59.40
2022-08-22T14:59:44.233Z,58.20
2022-08-22T15:02:26.580Z,58.40
2022-08-22T15:04:54.951Z,57.90
2022-08-22T15:07:23.582Z,58.30
2022-08-22T15:09:56.735Z,58.80
2022-08-22T15:12:28.788Z,59.30
2022-08-22T15:15:03.976Z,60.10
2022-08-22T15:17:45.474Z,60.70
2022-08-22T15:20:34.163Z,61.30
2022-08-22T15:23:10.109Z,61.80
2022-08-22T15:25:40.997Z,62.20
2022-08-22T15:28:14.102Z,62.60
2022-08-22T15:30:48.928Z,62.80
2022-08-22T15:33:32.306Z,63.10
2022-08-22T15:36:24.213Z,63.50
2022-08-22T15:39:33.923Z,63.60
2022-08-22T15:42:01.348Z,63.60
2022-08-22T15:44:35.943Z,63.70
2022-08-22T15:47:05.379Z,63.50
2022-08-22T15:49:50.342Z,63.40
2022-08-22T15:52:25.953Z,63.10
2022-08-22T15:54:57.141Z,62.80
2022-08-22T15:57:39.012Z,62.30
2022-08-22T16:00:12.060Z,61.70
2022-08-22T16:02:59.507Z,61.00
2022-08-22T16:05:37.570Z,60.30
2022-08-22T16:08:09.630Z,59.70
2022-08-22T16:10:40.635Z,59.50
2022-08-22T16:13:09.337Z,59.80
2022-08-22T16:15:51.301Z,59.20
2022-08-22T16:18:33.661Z,59.50
2022-08-22T16:21:08.384Z,59.80
2022-08-22T16:23:53.870Z,60.00
2022-08-22T16:26:44.144Z,60.20
2022-08-22T16:29:15.021Z,60.50
2022-08-22T16:31:44.961Z,60.90
2022-08-22T16:34:18.063Z,60.90
2022-08-22T16:37:03.412Z,61.10
2022-08-22T16:39:52.428Z,61.40
2022-08-22T16:42:22.398Z,61.60
2022-08-22T16:45:11.202Z,62.00
2022-08-22T16:47:58.164Z,62.20
2022-08-22T16:50:31.674Z,62.60
2022-08-22T16:53:12.061Z,62.90
2022-08-22T16:56:05.422Z,63.40
2022-08-22T16:59:00.866Z,63.80
2022-08-22T17:02:00.051Z,64.20
2022-08-22T17:04:40.260Z,64.50
2022-08-22T17:07:14.426Z,64.80
2022-08-22T17:10:16.903Z,65.30
2022-08-22T17:13:19.331Z,65.80
2022-08-22T17:15:57.677Z,66.00
2022-08-22T17:19:09.288Z,66.20
2022-08-22T17:21:53.652Z,66.60
2022-08-22T17:24:33.658Z,66.60
2022-08-22T17:27:12.390Z,66.70
2022-08-22T17:29:55.276Z,66.80
2022-08-22T17:32:32.555Z,66.90
2022-08-22T17:35:27.444Z,67.00
2022-08-22T17:38:03.193Z,67.20
2022-08-22T17:40:50.460Z,67.30
2022-08-22T17:43:32.762Z,67.40
2022-08-22T17:46:15.638Z,67.60
2022-08-22T17:48:46.038Z,67.80
2022-08-22T17:51:18.601Z,68.20
2022-08-22T17:53:47.577Z,68.70
2022-08-22T17:56:38.159Z,69.00
2022-08-22T17:59:10.187Z,69.40
2022-08-22T18:01:50.961Z,69.50
2022-08-22T18:04:43.306Z,69.60
2022-08-22T18:07:15.831Z,69.70
2022-08-22T18:10:04.747Z,69.70
2022-08-22T18:12:34.527Z,69.80
2022-08-22T18:15:38.725Z,69.80
2022-08-22T18:18:08.227Z,70.00
2022-08-22T18:20:44.119Z,69.90
2022-08-22T18:23:35.796Z,70.00
2022-08-22T18:26:09.144Z,70.20
2022-08-22T18:29:09.113Z,70.30
2022-08-22T18:31:57.678Z,70.60
2022-08-22T18:34:41.632Z,70.70
2022-08-22T18:37:30.797Z,71.30
2022-08-22T18:40:04.547Z,71.10
2022-08-22T18:42:31.456Z,71.20
2022-08-22T18:45:02.220Z,71.10
2022-08-22T18:47:33.522Z,71.10
2022-08-22T18:50:02.622Z,71.50
2022-08-22T18:52:39.086Z,71.80
2022-08-22T18:55:24.855Z,72.10
2022-08-22T18:57:57.902Z,72.40
2022-08-22T19:00:53.019Z,72.60
2022-08-22T19:03:26.118Z,73.00
2022-08-22T19:06:08.425Z,73.20
2022-08-22T19:08:53.906Z,73.80
2022-08-22T19:11:45.606Z,74.20
2022-08-22T19:14:25.060Z,74.50
2022-08-22T19:17:07.148Z,74.80
2022-08-22T19:20:38.886Z,75.30
2022-08-22T19:23:33.833Z,75.60
2022-08-22T19:26:30.352Z,75.80
2022-08-22T19:29:02.889Z,76.10
2022-08-22T19:31:35.933Z,76.20
2022-08-22T19:34:25.767Z,76.60
2022-08-22T19:37:11.568Z,77.00
2022-08-22T19:40:00.144Z,77.20
2022-08-22T19:42:30.366Z,77.30
2022-08-22T19:45:03.349Z,77.50
2022-08-22T19:47:39.460Z,77.90
2022-08-22T19:50:18.729Z,78.50
2022-08-22T19:53:04.021Z,78.50
2022-08-22T19:55:49.597Z,78.80
2022-08-22T19:58:35.266Z,79.00
2022-08-22T20:01:39.943Z,79.20
2022-08-22T20:04:46.669Z,79.40
2022-08-22T20:07:16.358Z,79.60
2022-08-22T20:09:56.227Z,79.50
2022-08-22T20:12:31.893Z,79.80
2022-08-22T20:15:04.613Z,80.30
2022-08-22T20:17:31.567Z,80.40
2022-08-22T20:20:17.246Z,80.70
2022-08-22T20:22:46.575Z,81.10
2022-08-22T20:25:41.693Z,81.40
2022-08-22T20:28:13.985Z,81.90
2022-08-22T20:30:43.804Z,81.90
2022-08-22T20:33:14.686Z,82.20
2022-08-22T20:35:52.554Z,82.50
2022-08-22T20:38:24.824Z,82.70
2022-08-22T20:41:11.662Z,82.90
2022-08-22T20:43:48.581Z,83.40
2022-08-22T20:46:35.176Z,83.40
2022-08-22T20:49:05.109Z,83.90
2022-08-22T20:51:32.817Z,83.70
2022-08-22T20:54:15.939Z,84.00
2022-08-22T20:56:54.632Z,84.30
2022-08-22T20:59:36.025Z,84.50
2022-08-22T21:02:09.692Z,84.70
2022-08-22T21:04:42.790Z,84.60
2022-08-22T21:07:10.368Z,84.90
2022-08-22T21:09:55.702Z,84.70
2022-08-22T21:12:24.078Z,84.40
2022-08-22T21:14:51.019Z,84.60
2022-08-22T21:17:34.404Z,84.70
2022-08-22T21:20:21.417Z,85.10
2022-08-22T21:22:48.463Z,85.30
2022-08-22T21:25:15.352Z,85.00
2022-08-22T21:27:42.377Z,85.10
2022-08-22T21:30:10.041Z,85.30
2022-08-22T21:32:46.352Z,85.50
2022-08-22T21:35:24.274Z,85.80
2022-08-22T21:37:51.336Z,85.80
2022-08-22T21:40:40.498Z,85.70
2022-08-22T21:43:13.651Z,85.80
2022-08-22T21:45:41.452Z,85.90
2022-08-22T21:48:33.384Z,85.80
2022-08-22T21:51:28.474Z,86.10
2022-08-22T21:54:29.641Z,86.10
2022-08-22T21:56:58.883Z,86.00
2022-08-22T21:59:50.660Z,85.80
2022-08-22T22:02:37.583Z,86.10
2022-08-22T22:05:09.388Z,86.20
2022-08-22T22:07:38.028Z,86.00
2022-08-22T22:10:07.230Z,86.20
2022-08-22T22:12:34.111Z,86.10
2022-08-22T22:15:00.993Z,86.20
2022-08-22T22:17:28.040Z,86.20
2022-08-22T22:19:55.078Z,86.30
2022-08-22T22:22:22.135Z,86.30
2022-08-22T22:24:49.011Z,86.40
2022-08-22T22:27:17.163Z,86.40
2022-08-22T22:29:44.260Z,86.40
2022-08-22T22:32:11.154Z,86.50
2022-08-22T22:34:39.154Z,86.60
2022-08-22T22:37:08.227Z,86.60
2022-08-22T22:39:36.115Z,86.70
2022-08-22T22:42:03.772Z,86.70
2022-08-22T22:44:31.055Z,86.80
2022-08-22T22:47:02.300Z,86.80
2022-08-22T22:49:30.247Z,86.90
2022-08-22T22:51:57.825Z,86.90
2022-08-22T22:54:27.219Z,87.00
2022-08-22T22:56:54.760Z,86.90
2022-08-22T22:59:24.569Z,87.10
2022-08-22T23:02:09.332Z,87.10
2022-08-22T23:04:38.981Z,87.40
2022-08-22T23:07:06.466Z,87.20
2022-08-22T23:09:38.610Z,87.30
2022-08-22T23:12:13.419Z,87.40
2022-08-22T23:14:40.567Z,87.40
2022-08-22T23:17:07.774Z,87.60
2022-08-22T23:19:34.863Z,87.80
2022-08-22T23:22:02.247Z,88.00
2022-08-22T23:24:32.469Z,88.20
2022-08-22T23:26:59.491Z,88.30
2022-08-22T23:29:26.405Z,88.90
2022-08-22T23:31:57.929Z,88.60
2022-08-22T23:34:29.504Z,88.70
2022-08-22T23:36:57.502Z,88.90
2022-08-22T23:39:25.484Z,88.90
2022-08-22T23:41:52.553Z,89.10
2022-08-22T23:44:21.662Z,89.10
2022-08-22T23:46:48.642Z,89.20
2022-08-22T23:49:15.692Z,89.30
2022-08-22T23:51:42.791Z,89.30
2022-08-22T23:54:09.782Z,89.40
2022-08-22T23:56:45.784Z,89.40
2022-08-22T23:59:15.624Z,89.60
